Time;durP1;ratioP1;P1;durP2;ratioP2;P2;SDS_P1;SDS_P2;PMS_P1;PMS_P2;Temp;Humidity;BMP_temperature;BMP_pressure;BME280_temperature;BME280_humidity;BME280_pressure;Samples;Min_cycle;Max_cycle;Signal;HPM_P1;HPM_P2
2020/12/29 00:00:52;;;;;;;5.18;4.13;;;6.10;84.20;;;;;;5012059;28;20473;-87
2020/12/29 00:03:18;;;;;;;6.30;5.30;;;6.10;84.10;;;;;;4997013;28;20388;-87
2020/12/29 00:05:44;;;;;;;5.93;4.60;;;6.10;84.00;;;;;;5021713;28;20022;-87
2020/12/29 00:08:10;;;;;;;6.75;5.18;;;6.10;84.10;;;;;;5019313;28;20018;-88
2020/12/29 00:10:36;;;;;;;7.25;4.82;;;6.10;84.10;;;;;;5027462;28;20048;-87
2020/12/29 00:13:02;;;;;;;7.07;5.07;;;6.10;84.10;;;;;;5022439;28;20033;-86
2020/12/29 00:15:27;;;;;;;5.18;4.30;;;6.10;84.10;;;;;;5024183;28;20101;-87
2020/12/29 00:17:53;;;;;;;5.20;3.85;;;6.20;84.10;;;;;;5032643;28;20038;-87
2020/12/29 00:20:18;;;;;;;5.15;4.20;;;6.20;84.10;;;;;;5027884;28;20017;-86
2020/12/29 00:22:44;;;;;;;3.88;3.42;;;6.20;84.10;;;;;;5005789;28;20040;-87
2020/12/29 00:25:10;;;;;;;4.90;3.72;;;6.30;84.10;;;;;;5032627;28;20013;-87
2020/12/29 00:27:36;;;;;;;4.65;3.95;;;6.40;84.00;;;;;;5025939;28;20079;-87
2020/12/29 00:30:02;;;;;;;5.32;3.80;;;6.40;83.90;;;;;;5026696;28;20026;-87
2020/12/29 00:32:28;;;;;;;6.93;5.15;;;6.40;83.70;;;;;;5025853;28;20033;-89
2020/12/29 00:34:55;;;;;;;5.25;4.32;;;6.30;83.70;;;;;;5018432;28;20042;-88
2020/12/29 00:37:20;;;;;;;6.40;5.00;;;6.40;83.80;;;;;;4997200;28;20028;-86
2020/12/29 00:39:46;;;;;;;5.88;4.32;;;6.40;83.70;;;;;;5013564;28;20030;-86
2020/12/29 00:42:11;;;;;;;6.45;4.65;;;6.40;83.70;;;;;;4992816;28;20524;-86
2020/12/29 00:44:37;;;;;;;7.25;5.93;;;6.40;83.70;;;;;;5010100;28;20549;-86
2020/12/29 00:47:02;;;;;;;7.15;5.60;;;6.30;83.50;;;;;;5010713;28;20407;-90
2020/12/29 00:49:28;;;;;;;5.60;4.55;;;6.20;83.50;;;;;;5010085;28;20513;-89
2020/12/29 00:51:54;;;;;;;6.85;5.70;;;6.20;83.70;;;;;;5023339;28;20022;-87
2020/12/29 00:54:21;;;;;;;5.50;3.85;;;6.10;83.80;;;;;;5021243;28;20025;-86
2020/12/29 00:56:47;;;;;;;5.07;4.30;;;6.10;83.90;;;;;;5019181;28;20127;-87
2020/12/29 00:59:13;;;;;;;4.35;3.63;;;6.20;83.90;;;;;;5015155;28;20030;-86
2020/12/29 01:01:40;;;;;;;5.22;4.35;;;6.20;83.90;;;;;;5013715;28;20128;-87
2020/12/29 01:04:05;;;;;;;6.68;4.93;;;6.30;83.80;;;;;;5012402;28;20100;-88
2020/12/29 01:06:31;;;;;;;6.70;5.47;;;6.20;83.70;;;;;;5020828;28;20495;-87
2020/12/29 01:08:57;;;;;;;5.80;4.68;;;6.20;83.70;;;;;;5011173;28;20022;-87
2020/12/29 01:11:23;;;;;;;5.82;5.05;;;6.10;83.80;;;;;;5012790;28;20125;-89
2020/12/29 01:13:48;;;;;;;8.00;6.18;;;6.10;83.80;;;;;;5010355;28;20109;-88
2020/12/29 01:16:14;;;;;;;5.78;3.72;;;6.00;83.80;;;;;;5009055;28;20018;-88
2020/12/29 01:18:40;;;;;;;6.53;5.35;;;6.10;84.00;;;;;;4985723;28;20010;-88
2020/12/29 01:21:08;;;;;;;5.88;4.43;;;6.10;84.00;;;;;;5015137;28;20025;-87
2020/12/29 01:23:34;;;;;;;6.50;5.57;;;6.00;83.90;;;;;;5013509;28;20030;-88
2020/12/29 01:26:00;;;;;;;5.88;4.80;;;6.00;83.90;;;;;;5014322;28;20044;-87
2020/12/29 01:28:25;;;;;;;5.93;4.72;;;6.00;84.00;;;;;;5006868;28;20467;-87
2020/12/29 01:30:51;;;;;;;4.63;3.55;;;6.00;84.10;;;;;;5014291;28;20050;-87
2020/12/29 01:33:16;;;;;;;5.53;4.28;;;6.10;84.10;;;;;;5013872;28;20025;-87
2020/12/29 01:35:42;;;;;;;5.65;5.00;;;6.10;84.00;;;;;;5007640;28;20025;-87
2020/12/29 01:38:07;;;;;;;5.32;4.50;;;6.00;84.00;;;;;;5014367;28;20044;-87
2020/12/29 01:40:34;;;;;;;5.65;4.20;;;6.10;84.10;;;;;;5015317;28;20029;-87
2020/12/29 01:43:00;;;;;;;4.25;3.58;;;6.10;84.00;;;;;;5015693;28;20084;-88
2020/12/29 01:45:26;;;;;;;5.15;4.10;;;6.20;84.10;;;;;;5015637;28;20038;-87
2020/12/29 01:47:53;;;;;;;5.47;4.07;;;6.20;83.90;;;;;;4999421;28;20034;-87
2020/12/29 01:50:21;;;;;;;4.03;3.38;;;6.20;83.90;;;;;;5016745;28;20026;-88
2020/12/29 01:53:00;;;;;;;4.60;3.38;;;6.20;83.80;;;;;;5013908;28;20038;-87
2020/12/29 01:55:28;;;;;;;3.75;3.30;;;6.30;83.90;;;;;;4996938;28;20018;-88
2020/12/29 01:57:55;;;;;;;3.95;3.30;;;6.30;83.70;;;;;;4996529;28;20026;-88
2020/12/29 02:00:22;;;;;;;3.58;3.25;;;6.30;83.70;;;;;;5015115;28;20499;-88
2020/12/29 02:02:47;;;;;;;4.05;3.08;;;6.30;83.60;;;;;;5015820;28;20037;-88
2020/12/29 02:05:14;;;;;;;5.45;3.83;;;6.40;83.70;;;;;;5015464;28;20030;-88
2020/12/29 02:07:40;;;;;;;4.35;3.85;;;6.40;83.80;;;;;;4998386;28;20029;-88
2020/12/29 02:10:05;;;;;;;5.25;4.13;;;6.40;83.60;;;;;;5016125;28;20048;-89
2020/12/29 02:12:35;;;;;;;5.30;3.95;;;6.30;83.60;;;;;;5013330;28;20030;-88
2020/12/29 02:15:04;;;;;;;6.13;4.65;;;6.20;83.60;;;;;;5013500;28;20041;-88
2020/12/29 02:17:30;;;;;;;9.38;5.57;;;6.20;83.60;;;;;;5014194;28;20070;-89
2020/12/29 02:19:56;;;;;;;6.70;4.22;;;6.20;83.60;;;;;;5012905;28;20029;-88
2020/12/29 02:22:24;;;;;;;5.03;4.43;;;6.20;83.60;;;;;;5013520;28;20144;-88
2020/12/29 02:24:55;;;;;;;5.75;4.68;;;6.20;83.60;;;;;;4995325;28;20105;-88
2020/12/29 02:27:22;;;;;;;5.13;4.07;;;6.10;83.60;;;;;;5012725;28;20116;-89
2020/12/29 02:29:48;;;;;;;5.00;3.60;;;6.10;83.60;;;;;;5012280;28;20029;-88
2020/12/29 02:32:14;;;;;;;4.03;3.25;;;6.10;83.60;;;;;;5013601;28;20030;-88
2020/12/29 02:34:40;;;;;;;4.68;3.60;;;6.10;83.60;;;;;;5013469;28;20037;-89
2020/12/29 02:37:07;;;;;;;4.60;3.90;;;6.20;83.60;;;;;;4995999;28;20021;-87
2020/12/29 02:39:34;;;;;;;4.15;3.58;;;6.30;83.50;;;;;;5011406;28;20391;-88
2020/12/29 02:42:00;;;;;;;4.72;3.80;;;6.30;83.50;;;;;;5012829;28;20017;-86
2020/12/29 02:44:26;;;;;;;4.75;4.22;;;6.30;83.40;;;;;;4993150;28;20121;-87
2020/12/29 02:46:52;;;;;;;4.40;4.00;;;6.20;83.30;;;;;;4995054;28;20030;-88
2020/12/29 02:49:17;;;;;;;4.38;3.33;;;6.20;83.30;;;;;;5012928;28;20620;-87
2020/12/29 02:51:44;;;;;;;3.95;3.28;;;6.20;83.30;;;;;;5012833;28;20037;-87
2020/12/29 02:54:13;;;;;;;4.03;3.63;;;6.30;83.40;;;;;;4995094;28;20049;-87
2020/12/29 02:56:43;;;;;;;5.03;4.10;;;6.30;83.40;;;;;;5012232;28;20033;-87
2020/12/29 02:59:11;;;;;;;5.93;4.20;;;6.30;83.20;;;;;;5010761;28;20037;-87
2020/12/29 03:01:37;;;;;;;8.55;6.00;;;6.30;83.20;;;;;;5007999;28;20099;-89
2020/12/29 03:04:03;;;;;;;5.50;4.72;;;6.20;83.10;;;;;;5012834;28;20014;-89
2020/12/29 03:06:29;;;;;;;5.88;5.05;;;6.10;83.10;;;;;;4994797;28;20025;-89
2020/12/29 03:08:54;;;;;;;4.45;3.70;;;6.10;83.20;;;;;;5012737;28;20377;-88
2020/12/29 03:11:28;;;;;;;4.72;4.00;;;6.10;83.30;;;;;;5012439;28;20038;-89
2020/12/29 03:13:55;;;;;;;5.20;3.95;;;6.10;83.30;;;;;;5012856;28;20025;-89
2020/12/29 03:16:21;;;;;;;5.10;4.03;;;6.10;83.30;;;;;;5012564;28;20028;-89
2020/12/29 03:18:47;;;;;;;6.00;3.90;;;6.10;83.30;;;;;;5012045;28;20026;-89
2020/12/29 03:21:12;;;;;;;4.90;3.50;;;6.10;83.30;;;;;;5012292;28;20037;-88
2020/12/29 03:23:38;;;;;;;6.63;4.45;;;6.10;83.30;;;;;;5012106;28;20024;-89
2020/12/29 03:26:04;;;;;;;4.15;3.40;;;6.10;83.20;;;;;;4995050;28;20022;-89
2020/12/29 03:28:29;;;;;;;5.10;4.53;;;6.10;83.20;;;;;;4990778;28;20085;-89
2020/12/29 03:30:55;;;;;;;5.43;4.15;;;6.10;83.20;;;;;;4978464;28;20031;-89
2020/12/29 03:33:21;;;;;;;4.47;3.58;;;6.10;83.20;;;;;;5013887;28;20052;-89
2020/12/29 03:35:46;;;;;;;5.10;4.25;;;6.10;83.40;;;;;;5017134;28;20036;-89
2020/12/29 03:38:12;;;;;;;4.50;3.90;;;6.10;83.30;;;;;;5010407;28;20030;-90
2020/12/29 03:40:37;;;;;;;5.20;3.80;;;6.20;83.40;;;;;;5011948;28;20075;-89
2020/12/29 03:43:03;;;;;;;6.82;5.72;;;6.10;83.90;;;;;;5010933;28;20064;-89
2020/12/29 03:45:28;;;;;;;4.72;4.22;;;6.10;83.30;;;;;;5012643;28;20143;-89
2020/12/29 03:47:54;;;;;;;5.40;4.90;;;6.10;84.00;;;;;;5011622;28;20162;-89
2020/12/29 03:50:19;;;;;;;4.95;3.85;;;6.10;83.40;;;;;;5011557;28;20088;-88
2020/12/29 03:52:46;;;;;;;4.03;3.63;;;6.10;83.40;;;;;;5010761;28;20384;-87
2020/12/29 03:55:12;;;;;;;3.88;3.13;;;6.10;83.40;;;;;;4992930;28;20120;-89
2020/12/29 03:57:38;;;;;;;4.30;3.72;;;6.10;83.30;;;;;;5011424;28;20156;-88
2020/12/29 04:00:05;;;;;;;4.80;4.30;;;6.20;83.30;;;;;;5010789;28;20055;-88
2020/12/29 04:02:31;;;;;;;5.22;4.50;;;6.10;83.60;;;;;;4993809;28;20029;-89
2020/12/29 04:04:57;;;;;;;5.82;4.55;;;6.10;83.20;;;;;;5011591;28;20033;-89
2020/12/29 04:07:22;;;;;;;4.18;3.58;;;6.10;83.20;;;;;;5011411;28;20039;-89
2020/12/29 04:09:48;;;;;;;3.72;3.13;;;6.10;83.30;;;;;;5010088;28;20045;-89
2020/12/29 04:12:13;;;;;;;4.57;3.80;;;6.20;83.30;;;;;;5010750;28;20377;-88
2020/12/29 04:14:39;;;;;;;5.97;4.10;;;6.20;83.30;;;;;;4992619;28;20014;-88
2020/12/29 04:17:04;;;;;;;6.10;4.55;;;6.20;83.30;;;;;;5011340;28;20451;-88
2020/12/29 04:19:30;;;;;;;4.60;4.05;;;6.20;83.20;;;;;;4989763;28;20026;-88
2020/12/29 04:21:55;;;;;;;4.25;3.85;;;6.20;83.20;;;;;;5010748;28;20105;-88
2020/12/29 04:24:21;;;;;;;4.80;3.83;;;6.20;83.20;;;;;;5011119;28;20030;-89
2020/12/29 04:26:47;;;;;;;3.83;3.15;;;6.20;83.30;;;;;;5010472;28;20058;-88
2020/12/29 04:29:12;;;;;;;4.32;3.35;;;6.30;83.30;;;;;;5009730;28;20022;-89
2020/12/29 04:31:38;;;;;;;4.10;3.70;;;6.30;83.30;;;;;;5010502;28;20048;-88
2020/12/29 04:34:03;;;;;;;4.55;4.00;;;6.30;83.20;;;;;;4988231;28;20113;-89
2020/12/29 04:36:29;;;;;;;5.07;4.30;;;6.30;83.20;;;;;;5011543;28;20053;-89
2020/12/29 04:38:54;;;;;;;6.05;4.80;;;6.20;83.10;;;;;;5010687;28;20045;-89
2020/12/29 04:41:20;;;;;;;6.80;5.43;;;6.10;83.10;;;;;;5011766;28;20022;-89
2020/12/29 04:43:47;;;;;;;6.25;5.15;;;6.10;83.10;;;;;;5010199;28;20148;-88
2020/12/29 04:46:12;;;;;;;6.07;5.20;;;6.00;83.20;;;;;;5011379;28;20079;-89
2020/12/29 04:48:38;;;;;;;7.68;6.30;;;5.90;83.20;;;;;;5009250;28;20022;-88
2020/12/29 04:51:08;;;;;;;6.15;4.82;;;5.80;83.30;;;;;;5011503;28;20057;-89
2020/12/29 04:53:35;;;;;;;7.43;5.53;;;5.80;83.50;;;;;;5010425;28;20116;-89
2020/12/29 04:56:08;;;;;;;7.68;6.80;;;5.80;83.60;;;;;;4994092;28;20026;-89
2020/12/29 04:58:35;;;;;;;7.78;5.60;;;5.70;83.70;;;;;;5010026;28;20092;-89
2020/12/29 05:01:09;;;;;;;6.70;5.45;;;5.70;83.80;;;;;;4992909;28;20039;-89
2020/12/29 05:03:45;;;;;;;6.65;5.72;;;5.70;83.90;;;;;;5010698;28;20325;-90
2020/12/29 05:06:11;;;;;;;4.45;3.97;;;5.60;83.90;;;;;;5011087;28;20018;-90
2020/12/29 05:08:42;;;;;;;5.35;4.85;;;5.60;84.00;;;;;;5010711;28;20026;-89
2020/12/29 05:11:08;;;;;;;5.15;4.50;;;5.70;84.10;;;;;;4993481;28;20080;-90
2020/12/29 05:13:33;;;;;;;7.35;6.55;;;5.70;84.00;;;;;;5010688;28;20115;-89
2020/12/29 05:15:59;;;;;;;6.57;4.97;;;5.80;83.90;;;;;;5011436;28;20140;-89
2020/12/29 05:18:26;;;;;;;7.07;5.20;;;5.80;84.00;;;;;;5009377;28;20057;-89
2020/12/29 05:20:52;;;;;;;6.07;4.45;;;5.80;84.00;;;;;;4994040;28;20042;-89
2020/12/29 05:23:18;;;;;;;5.28;4.30;;;5.90;84.00;;;;;;5010471;28;20034;-89
2020/12/29 05:25:46;;;;;;;4.53;3.92;;;5.90;83.90;;;;;;5011024;28;20057;-89
2020/12/29 05:28:13;;;;;;;6.68;5.15;;;5.90;83.90;;;;;;5010354;28;20037;-89
2020/12/29 05:30:39;;;;;;;5.50;4.60;;;5.90;83.80;;;;;;5010511;28;20017;-89
2020/12/29 05:33:14;;;;;;;7.57;4.60;;;6.00;83.90;;;;;;5009700;28;20038;-89
2020/12/29 05:35:40;;;;;;;4.93;3.97;;;6.00;83.90;;;;;;5010637;28;20030;-90
2020/12/29 05:38:08;;;;;;;6.65;4.80;;;6.10;83.80;;;;;;5011267;28;20028;-91
2020/12/29 05:40:34;;;;;;;6.82;5.15;;;6.10;83.70;;;;;;5011085;28;20022;-91
2020/12/29 05:43:01;;;;;;;4.30;3.80;;;6.10;83.70;;;;;;5010519;28;20040;-90
2020/12/29 05:45:32;;;;;;;7.80;5.47;;;6.10;83.70;;;;;;5011137;28;20081;-91
2020/12/29 05:47:59;;;;;;;6.82;4.78;;;6.10;83.70;;;;;;4993302;28;20029;-90
2020/12/29 05:50:27;;;;;;;5.80;4.78;;;6.10;83.80;;;;;;4993316;28;20424;-90
2020/12/29 05:52:53;;;;;;;5.38;4.35;;;6.10;83.80;;;;;;5005833;28;20033;-90
2020/12/29 05:55:21;;;;;;;8.48;7.07;;;6.10;83.80;;;;;;4993512;28;20088;-90
2020/12/29 05:58:03;;;;;;;6.68;4.93;;;6.20;83.80;;;;;;5010833;28;20029;-91
2020/12/29 06:00:30;;;;;;;5.78;4.05;;;6.10;83.90;;;;;;5009616;28;20060;-89
2020/12/29 06:02:57;;;;;;;6.82;5.15;;;6.10;83.90;;;;;;5010166;28;20072;-90
2020/12/29 06:05:27;;;;;;;7.45;5.55;;;6.10;83.90;;;;;;5011831;28;20468;-90
2020/12/29 06:07:58;;;;;;;5.38;4.40;;;6.20;83.90;;;;;;4996637;28;20030;-89
2020/12/29 06:10:25;;;;;;;7.20;5.65;;;6.20;83.80;;;;;;5013532;28;20026;-89
2020/12/29 06:12:54;;;;;;;6.68;5.13;;;6.20;83.70;;;;;;4990654;28;20026;-89
2020/12/29 06:15:23;;;;;;;6.55;4.80;;;6.20;83.80;;;;;;5013144;28;20022;-89
2020/12/29 06:17:57;;;;;;;6.00;4.90;;;6.30;83.90;;;;;;4997658;28;20022;-89
2020/12/29 06:20:23;;;;;;;7.85;5.82;;;6.30;83.80;;;;;;5010769;28;20018;-89
2020/12/29 06:22:51;;;;;;;7.28;5.97;;;6.40;83.80;;;;;;5013537;28;20088;-89
2020/12/29 06:25:18;;;;;;;8.77;6.13;;;6.30;83.70;;;;;;4996684;28;20032;-90
2020/12/29 06:27:52;;;;;;;7.57;5.18;;;6.30;83.90;;;;;;5013788;28;20037;-90
2020/12/29 06:30:19;;;;;;;10.70;6.55;;;6.30;83.90;;;;;;5013290;28;20088;-90
2020/12/29 06:33:05;;;;;;;10.90;6.95;;;6.30;83.90;;;;;;5207892;23;20423;-85
2020/12/29 06:35:30;;;;;;;8.50;6.40;;;6.30;84.00;;;;;;5001171;28;20039;-84
2020/12/29 06:38:21;;;;;;;7.78;5.90;;;6.30;84.00;;;;;;5001203;28;20506;-84
2020/12/29 06:40:48;;;;;;;7.53;5.50;;;6.30;84.00;;;;;;5012427;28;20034;-84
2020/12/29 06:43:14;;;;;;;8.50;6.30;;;6.30;83.90;;;;;;5000801;28;20026;-84
2020/12/29 06:45:39;;;;;;;7.40;5.70;;;6.30;83.90;;;;;;4975652;28;20030;-84
2020/12/29 06:48:19;;;;;;;5.43;4.13;;;6.40;84.00;;;;;;4992739;28;20032;-84
2020/12/29 06:50:46;;;;;;;7.40;5.47;;;6.30;84.10;;;;;;4991495;28;20034;-84
2020/12/29 06:53:18;;;;;;;7.55;5.72;;;6.40;84.00;;;;;;4992810;28;20030;-83
2020/12/29 06:55:46;;;;;;;8.25;5.70;;;6.30;84.00;;;;;;4975423;28;20037;-84
2020/12/29 06:58:32;;;;;;;6.85;4.65;;;6.30;84.00;;;;;;4972038;28;20046;-83
2020/12/29 07:01:22;;;;;;;7.70;5.75;;;6.40;84.00;;;;;;4971504;28;20030;-84
2020/12/29 07:04:02;;;;;;;8.30;6.40;;;6.40;84.00;;;;;;4991360;28;20026;-82
2020/12/29 07:06:31;;;;;;;7.22;5.53;;;6.40;84.00;;;;;;4967443;28;20023;-83
2020/12/29 07:09:01;;;;;;;6.85;5.50;;;6.20;83.90;;;;;;4989231;28;20022;-82
2020/12/29 07:11:26;;;;;;;6.53;5.28;;;6.30;84.00;;;;;;4990882;28;20065;-83
2020/12/29 07:13:52;;;;;;;6.63;5.05;;;6.30;84.00;;;;;;4972888;28;20471;-82
2020/12/29 07:16:25;;;;;;;6.90;5.03;;;6.30;84.00;;;;;;4988928;28;20383;-81
2020/12/29 07:18:51;;;;;;;5.40;4.43;;;6.30;84.10;;;;;;4990267;28;20023;-83
2020/12/29 07:21:28;;;;;;;5.60;4.15;;;6.30;84.10;;;;;;4991741;28;20022;-84
2020/12/29 07:23:54;;;;;;;6.57;4.93;;;6.30;84.00;;;;;;4995692;28;20101;-83
2020/12/29 07:26:22;;;;;;;6.60;4.97;;;6.20;83.80;;;;;;5003596;28;20023;-84
2020/12/29 07:28:54;;;;;;;5.68;4.20;;;6.20;83.90;;;;;;5011601;28;20018;-83
2020/12/29 07:31:27;;;;;;;5.15;4.18;;;6.20;84.10;;;;;;4997574;28;20040;-83
2020/12/29 07:34:00;;;;;;;6.00;4.40;;;6.20;84.60;;;;;;5005641;28;20029;-84
2020/12/29 07:36:28;;;;;;;5.30;4.03;;;6.30;84.00;;;;;;5003181;28;20022;-85
2020/12/29 07:38:59;;;;;;;4.55;3.65;;;6.30;83.90;;;;;;4979777;28;20077;-85
2020/12/29 07:41:35;;;;;;;6.15;4.32;;;6.10;83.90;;;;;;5000782;28;20057;-84
2020/12/29 07:44:03;;;;;;;5.28;3.90;;;6.10;84.00;;;;;;5000608;28;20379;-84
2020/12/29 07:46:28;;;;;;;6.50;4.60;;;6.10;84.10;;;;;;4969327;28;20035;-84
2020/12/29 07:48:56;;;;;;;6.22;4.70;;;6.00;84.10;;;;;;4977541;28;20027;-84
2020/12/29 07:51:22;;;;;;;7.53;5.20;;;6.00;84.10;;;;;;4976821;28;20026;-83
2020/12/29 07:53:47;;;;;;;5.32;3.70;;;5.90;84.10;;;;;;4973842;28;20026;-84
2020/12/29 07:56:14;;;;;;;5.07;3.65;;;5.90;84.20;;;;;;4991737;28;20022;-82
2020/12/29 07:58:39;;;;;;;8.10;5.60;;;5.80;84.10;;;;;;4990259;28;20145;-83
2020/12/29 08:01:05;;;;;;;7.90;5.60;;;5.90;84.20;;;;;;4991097;28;20162;-83
2020/12/29 08:03:31;;;;;;;5.82;4.00;;;5.80;84.20;;;;;;4990914;28;20084;-84
2020/12/29 08:05:56;;;;;;;8.15;5.53;;;5.70;84.30;;;;;;4989646;28;20041;-82
2020/12/29 08:08:22;;;;;;;8.40;5.63;;;5.70;84.30;;;;;;4991120;28;20158;-83
2020/12/29 08:10:47;;;;;;;8.00;5.45;;;5.70;84.30;;;;;;4990872;28;20089;-84
2020/12/29 08:13:19;;;;;;;8.15;5.80;;;5.70;84.30;;;;;;4990078;28;20030;-83
2020/12/29 08:15:47;;;;;;;9.98;6.75;;;5.70;84.30;;;;;;4968508;28;20034;-85
2020/12/29 08:18:14;;;;;;;9.18;6.35;;;5.60;84.20;;;;;;4974006;28;20038;-84
2020/12/29 08:20:42;;;;;;;9.93;6.53;;;5.60;84.30;;;;;;4985315;28;20030;-85
2020/12/29 08:23:08;;;;;;;8.35;6.00;;;5.60;84.50;;;;;;4972148;28;20030;-84
2020/12/29 08:25:34;;;;;;;7.70;5.25;;;5.50;84.40;;;;;;4991294;28;20049;-83
2020/12/29 08:28:02;;;;;;;8.50;5.40;;;5.50;84.40;;;;;;4988419;28;20026;-85
2020/12/29 08:30:29;;;;;;;8.32;5.65;;;5.50;84.40;;;;;;4991077;28;20042;-83
2020/12/29 08:32:57;;;;;;;7.50;4.72;;;5.50;84.50;;;;;;4980227;28;20019;-86
2020/12/29 08:35:22;;;;;;;6.53;4.72;;;5.40;84.40;;;;;;4970372;28;20127;-85
2020/12/29 08:38:03;;;;;;;6.88;4.72;;;5.50;84.50;;;;;;4971111;28;20217;-83
2020/12/29 08:40:35;;;;;;;5.65;3.90;;;5.40;84.40;;;;;;4989027;28;20053;-85
2020/12/29 08:43:01;;;;;;;6.28;4.38;;;5.40;84.40;;;;;;4966968;28;20106;-84
2020/12/29 08:45:28;;;;;;;4.80;3.40;;;5.40;84.40;;;;;;4988980;28;20739;-86
2020/12/29 08:48:27;;;;;;;;;;;;;;;;;;;;;
2020/12/29 08:50:55;;;;;;;6.95;4.53;;;5.30;84.40;;;;;;4961617;28;20045;-85
2020/12/29 08:53:27;;;;;;;6.75;4.72;;;5.40;84.40;;;;;;4974260;28;20026;-85
2020/12/29 08:55:53;;;;;;;;;;;5.30;84.30;;;;;;4991167;28;20095;-86
2020/12/29 08:58:48;;;;;;;6.88;4.05;;;5.30;84.30;;;;;;4990848;28;20469;-87
2020/12/29 09:01:38;;;;;;;6.60;4.38;;;5.20;84.30;;;;;;4986077;28;20034;-87
2020/12/29 09:04:40;;;;;;;8.10;5.40;;;5.20;84.30;;;;;;4988603;28;20062;-85
2020/12/29 09:07:10;;;;;;;7.38;4.97;;;5.10;84.20;;;;;;4968390;28;20106;-85
2020/12/29 09:09:51;;;;;;;5.93;4.45;;;5.10;84.30;;;;;;4965675;28;20538;-86
2020/12/29 09:12:35;;;;;;;7.25;5.13;;;5.20;84.40;;;;;;4985753;28;20042;-86
2020/12/29 09:15:27;;;;;;;5.55;4.10;;;5.20;84.30;;;;;;4989092;28;20073;-87
2020/12/29 09:17:59;;;;;;;5.57;4.20;;;5.20;84.20;;;;;;4969350;28;20608;-86
2020/12/29 09:20:30;;;;;;;7.30;5.18;;;5.40;84.20;;;;;;4990367;28;20040;-85
2020/12/29 09:22:57;;;;;;;6.85;4.90;;;5.20;84.10;;;;;;4989350;28;20109;-83
2020/12/29 09:25:22;;;;;;;5.22;3.72;;;5.30;84.20;;;;;;4971898;28;20081;-84
2020/12/29 09:27:48;;;;;;;7.38;5.25;;;5.20;84.10;;;;;;4975055;28;20042;-84
2020/12/29 09:30:14;;;;;;;9.02;6.30;;;5.20;84.10;;;;;;4991776;28;20468;-83
2020/12/29 09:32:40;;;;;;;8.25;5.50;;;5.20;84.10;;;;;;4972248;28;20121;-85
2020/12/29 09:35:25;;;;;;;8.15;5.72;;;5.20;84.10;;;;;;4976395;28;20488;-84
2020/12/29 09:37:56;;;;;;;7.50;5.10;;;5.20;84.20;;;;;;4966810;28;20026;-83
2020/12/29 09:40:24;;;;;;;8.07;5.57;;;5.30;84.20;;;;;;4987021;28;20031;-84
2020/12/29 09:42:50;;;;;;;7.55;5.07;;;5.20;84.70;;;;;;4972967;28;20393;-84
2020/12/29 09:45:20;;;;;;;8.55;5.95;;;5.30;84.10;;;;;;4957334;28;20449;-83
2020/12/29 09:47:47;;;;;;;8.65;6.20;;;5.30;84.10;;;;;;4990462;28;20185;-84
2020/12/29 09:50:13;;;;;;;7.75;5.28;;;5.30;84.10;;;;;;4990528;28;20019;-84
2020/12/29 09:52:39;;;;;;;6.68;4.50;;;5.20;84.10;;;;;;4990607;28;20088;-85
2020/12/29 09:55:06;;;;;;;7.30;4.95;;;5.40;84.10;;;;;;4971235;28;20044;-84
2020/12/29 09:57:32;;;;;;;8.45;5.93;;;5.30;84.10;;;;;;4991562;28;20105;-85
2020/12/29 09:59:58;;;;;;;5.43;3.83;;;5.30;84.10;;;;;;4974978;28;20030;-85
2020/12/29 10:02:23;;;;;;;5.63;4.00;;;5.30;84.70;;;;;;4974183;28;20121;-84
2020/12/29 10:04:49;;;;;;;7.15;5.05;;;5.30;84.20;;;;;;4991456;28;20041;-86
2020/12/29 10:07:15;;;;;;;8.18;5.88;;;5.30;84.10;;;;;;4992075;28;20031;-85
2020/12/29 10:09:40;;;;;;;6.30;4.45;;;5.40;84.10;;;;;;4991729;28;20056;-84
2020/12/29 10:12:06;;;;;;;7.13;4.93;;;5.40;84.10;;;;;;4991682;28;20042;-82
2020/12/29 10:14:32;;;;;;;5.70;3.80;;;5.40;84.00;;;;;;4973716;28;20030;-85
2020/12/29 10:16:58;;;;;;;6.65;4.45;;;5.40;84.70;;;;;;4975270;28;20027;-84
2020/12/29 10:19:23;;;;;;;5.43;3.60;;;5.40;84.10;;;;;;4993882;28;20343;-83
2020/12/29 10:21:54;;;;;;;6.10;4.70;;;5.40;84.10;;;;;;4993648;28;20038;-87
2020/12/29 10:24:20;;;;;;;6.97;4.78;;;5.40;84.10;;;;;;4973445;28;20746;-87
2020/12/29 10:26:49;;;;;;;6.10;4.35;;;5.50;84.10;;;;;;4994923;28;20121;-86
2020/12/29 10:29:14;;;;;;;6.57;4.70;;;5.50;84.10;;;;;;4971973;28;20022;-87
2020/12/29 10:31:40;;;;;;;7.13;4.93;;;5.50;84.10;;;;;;4992844;28;20387;-87
2020/12/29 10:34:06;;;;;;;5.20;3.75;;;5.50;84.00;;;;;;4992611;28;20034;-88
2020/12/29 10:36:35;;;;;;;6.60;4.60;;;5.70;84.10;;;;;;4991364;28;20022;-88
2020/12/29 10:39:02;;;;;;;6.28;4.53;;;5.60;83.90;;;;;;4959559;28;20034;-88
2020/12/29 10:41:35;;;;;;;5.60;3.92;;;5.60;83.90;;;;;;4996894;28;20019;-90
2020/12/29 10:44:01;;;;;;;5.65;4.03;;;5.60;83.90;;;;;;4989427;28;20037;-88
2020/12/29 10:46:27;;;;;;;5.93;4.25;;;5.50;83.90;;;;;;4995823;28;20034;-88
2020/12/29 10:48:55;;;;;;;4.90;3.40;;;5.60;84.00;;;;;;4989353;28;20435;-86
2020/12/29 10:51:22;;;;;;;6.43;4.53;;;5.60;84.00;;;;;;4994211;28;20542;-88
2020/12/29 10:53:49;;;;;;;6.20;4.20;;;5.60;84.00;;;;;;4991696;28;20027;-89
2020/12/29 10:56:15;;;;;;;6.18;4.57;;;5.70;84.00;;;;;;4960225;28;20118;-87
2020/12/29 10:58:44;;;;;;;6.20;4.43;;;5.60;84.00;;;;;;4978172;28;20049;-87
2020/12/29 11:01:18;;;;;;;8.10;5.53;;;5.70;84.10;;;;;;4977017;28;20065;-86
2020/12/29 11:03:47;;;;;;;6.47;4.70;;;5.60;84.00;;;;;;4992001;28;20061;-87
2020/12/29 11:06:18;;;;;;;6.80;4.72;;;5.60;84.00;;;;;;5006648;28;20006;-87
2020/12/29 11:08:44;;;;;;;7.72;5.25;;;5.60;84.00;;;;;;5010819;28;20035;-88
2020/12/29 11:11:10;;;;;;;7.32;5.22;;;5.60;84.10;;;;;;4996999;28;20034;-88
2020/12/29 11:13:36;;;;;;;6.45;4.70;;;5.70;84.20;;;;;;5003420;28;20098;-88
2020/12/29 11:16:02;;;;;;;9.02;5.95;;;5.60;84.20;;;;;;4977145;28;20509;-88
2020/12/29 11:18:28;;;;;;;7.90;5.65;;;5.70;84.20;;;;;;4997765;28;20030;-88
2020/12/29 11:20:54;;;;;;;8.02;5.50;;;5.70;84.30;;;;;;5009987;28;20018;-87
2020/12/29 11:23:22;;;;;;;9.73;6.78;;;5.70;84.30;;;;;;5011971;28;20030;-88
2020/12/29 11:25:49;;;;;;;8.13;5.63;;;5.70;84.20;;;;;;5012143;28;20041;-88
2020/12/29 11:28:16;;;;;;;7.78;5.10;;;5.60;84.30;;;;;;4980210;28;20077;-88
2020/12/29 11:30:44;;;;;;;6.45;4.60;;;5.70;84.30;;;;;;4985641;28;20034;-88
2020/12/29 11:33:10;;;;;;;6.28;4.50;;;5.80;84.40;;;;;;4979681;28;20101;-88
2020/12/29 11:35:37;;;;;;;9.32;6.35;;;5.80;84.30;;;;;;4981935;28;20053;-88
2020/12/29 11:38:02;;;;;;;7.57;5.38;;;5.80;84.20;;;;;;4988105;28;20133;-88
2020/12/29 11:40:28;;;;;;;8.10;5.65;;;6.00;84.20;;;;;;5004656;28;20018;-87
2020/12/29 11:42:53;;;;;;;8.73;6.32;;;5.80;84.10;;;;;;5005169;28;20023;-88
2020/12/29 11:45:19;;;;;;;8.45;6.07;;;5.80;84.00;;;;;;4980134;28;20578;-87
2020/12/29 11:47:46;;;;;;;9.07;6.55;;;5.80;84.10;;;;;;4990070;28;20045;-88
2020/12/29 11:50:12;;;;;;;6.75;4.30;;;6.00;84.20;;;;;;4991272;28;20014;-87
2020/12/29 11:52:37;;;;;;;10.40;7.22;;;5.90;84.20;;;;;;4986219;28;20089;-87
2020/12/29 11:55:03;;;;;;;7.70;5.35;;;5.90;84.10;;;;;;4998047;28;20023;-86
2020/12/29 11:57:29;;;;;;;9.20;6.15;;;5.90;84.20;;;;;;4976196;28;20026;-87
2020/12/29 11:59:54;;;;;;;9.80;6.78;;;5.90;84.10;;;;;;5002337;28;20030;-88
2020/12/29 12:02:20;;;;;;;9.77;6.30;;;5.90;84.00;;;;;;4996512;28;20074;-85
2020/12/29 12:04:45;;;;;;;8.50;5.78;;;5.90;84.00;;;;;;4997343;28;20045;-85
2020/12/29 12:07:12;;;;;;;8.18;6.00;;;5.90;84.10;;;;;;5000172;28;20455;-86
2020/12/29 12:09:38;;;;;;;8.05;5.97;;;5.90;84.10;;;;;;4975212;28;20578;-87
2020/12/29 12:12:04;;;;;;;8.52;5.93;;;5.90;84.10;;;;;;4987887;28;20037;-86
2020/12/29 12:14:31;;;;;;;9.43;6.63;;;5.90;84.20;;;;;;4988322;28;20471;-85
2020/12/29 12:16:56;;;;;;;9.88;6.47;;;5.90;84.20;;;;;;4983338;28;20026;-85
2020/12/29 12:19:22;;;;;;;7.20;4.97;;;6.00;84.30;;;;;;4989180;28;20476;-85
2020/12/29 12:21:48;;;;;;;8.35;5.75;;;5.90;84.30;;;;;;4987456;28;20041;-84
2020/12/29 12:24:13;;;;;;;8.63;5.75;;;5.90;84.40;;;;;;4970509;28;20522;-85
2020/12/29 12:26:39;;;;;;;11.82;7.45;;;6.00;84.40;;;;;;4971408;28;20026;-84
2020/12/29 12:29:05;;;;;;;11.07;7.47;;;6.00;84.30;;;;;;4969050;28;20019;-84
2020/12/29 12:31:33;;;;;;;11.25;7.50;;;6.00;84.30;;;;;;4970885;28;20502;-83
2020/12/29 12:33:58;;;;;;;13.38;9.15;;;6.00;84.30;;;;;;4988388;28;20049;-83
2020/12/29 12:36:24;;;;;;;12.70;8.77;;;6.00;84.40;;;;;;4988809;28;20467;-82
2020/12/29 12:38:50;;;;;;;15.38;10.05;;;6.00;84.40;;;;;;4988920;28;20034;-82
2020/12/29 12:41:16;;;;;;;15.90;9.93;;;6.00;84.40;;;;;;4988306;28;20033;-83
2020/12/29 12:43:44;;;;;;;14.27;9.50;;;6.00;84.40;;;;;;4989421;28;20018;-83
2020/12/29 12:46:09;;;;;;;12.90;9.10;;;6.10;84.50;;;;;;4987843;28;20058;-84
2020/12/29 12:48:36;;;;;;;13.93;9.20;;;6.10;84.40;;;;;;4989163;28;20049;-84
2020/12/29 12:51:02;;;;;;;16.80;11.90;;;6.10;84.40;;;;;;4968226;28;20041;-84
2020/12/29 12:53:27;;;;;;;14.65;9.88;;;6.20;84.50;;;;;;4987602;28;20030;-84
2020/12/29 12:55:53;;;;;;;12.88;8.77;;;6.10;84.60;;;;;;4970109;28;20110;-84
2020/12/29 12:58:19;;;;;;;11.98;8.07;;;6.10;84.50;;;;;;4988577;28;20034;-84
2020/12/29 13:00:44;;;;;;;12.00;8.15;;;6.20;84.50;;;;;;4970985;28;20073;-84